Saint-Étienne-Bouthéon Airport

Airport
ICAO code: 
LFMH
IATA Code: 
EBU
Summary
ICAO Region: 
EUR
Territory: 
Location: 
, Rhone-Alpes
Serving: 
St-Etienne
Elevation: 
1325 ft
Coordinates: 
Aerial View: 
45° 32' 25.994" N, 4° 17' 47" E
Metar
Observation
LFMH 020230Z AUTO 19005KT CAVOK 00/M01 Q1004
Station
St-Etienne Boutheon
Date/Time
2021-12-02 02:30:00
Wind direction
190°
Wind speed
05 kts
Lowest cloud amount
clouds and visibility OK
Temperature
0°C
Dew point
-1°C
Humidity
92%
QNH
1004 hPa
Weather condition
n/a

Runways

Designator Length Width Surface Rops
18/36 2300 45 ASP Yes/Yes
Airport map: 
Aerial View: 

SKYbrary Partners:

Safety knowledge contributed by: